sensor_id;sensor_type;location;lat;lon;timestamp;P1;durP1;ratioP1;P2;durP2;ratioP2
16189;SDS011;41754;51.498;7.540;2023-07-28T00:00:06;2.45;;;2.25;;
16189;SDS011;41754;51.498;7.540;2023-07-28T00:02:40;5.38;;;2.70;;
16189;SDS011;41754;51.498;7.540;2023-07-28T00:05:08;3.63;;;2.40;;
16189;SDS011;41754;51.498;7.540;2023-07-28T00:07:35;2.50;;;2.30;;
16189;SDS011;41754;51.498;7.540;2023-07-28T00:10:03;3.25;;;2.20;;
16189;SDS011;41754;51.498;7.540;2023-07-28T00:12:32;3.92;;;2.75;;
16189;SDS011;41754;51.498;7.540;2023-07-28T00:15:03;2.63;;;2.42;;
16189;SDS011;41754;51.498;7.540;2023-07-28T00:17:31;2.63;;;2.13;;
16189;SDS011;41754;51.498;7.540;2023-07-28T00:19:59;3.50;;;2.72;;
16189;SDS011;41754;51.498;7.540;2023-07-28T00:22:27;4.80;;;2.30;;
16189;SDS011;41754;51.498;7.540;2023-07-28T00:24:54;4.40;;;2.30;;
16189;SDS011;41754;51.498;7.540;2023-07-28T00:27:22;3.58;;;2.20;;
16189;SDS011;41754;51.498;7.540;2023-07-28T00:29:50;2.92;;;2.30;;
16189;SDS011;41754;51.498;7.540;2023-07-28T00:32:20;3.15;;;2.00;;
16189;SDS011;41754;51.498;7.540;2023-07-28T00:34:47;2.33;;;1.90;;
16189;SDS011;41754;51.498;7.540;2023-07-28T00:37:16;2.30;;;2.10;;
16189;SDS011;41754;51.498;7.540;2023-07-28T00:39:45;2.35;;;2.08;;
16189;SDS011;41754;51.498;7.540;2023-07-28T00:42:13;3.35;;;2.28;;
16189;SDS011;41754;51.498;7.540;2023-07-28T00:44:40;2.75;;;2.00;;
16189;SDS011;41754;51.498;7.540;2023-07-28T00:47:08;2.13;;;1.92;;
16189;SDS011;41754;51.498;7.540;2023-07-28T00:49:37;2.83;;;2.17;;
16189;SDS011;41754;51.498;7.540;2023-07-28T00:52:07;3.75;;;2.30;;
16189;SDS011;41754;51.498;7.540;2023-07-28T00:54:35;6.95;;;2.08;;
16189;SDS011;41754;51.498;7.540;2023-07-28T00:57:04;2.28;;;2.15;;
16189;SDS011;41754;51.498;7.540;2023-07-28T00:59:33;4.28;;;2.20;;
16189;SDS011;41754;51.498;7.540;2023-07-28T01:02:01;4.60;;;2.28;;
16189;SDS011;41754;51.498;7.540;2023-07-28T01:04:30;3.42;;;2.20;;
16189;SDS011;41754;51.498;7.540;2023-07-28T01:07:01;2.42;;;2.00;;
16189;SDS011;41754;51.498;7.540;2023-07-28T01:09:37;2.40;;;1.77;;
16189;SDS011;41754;51.498;7.540;2023-07-28T01:12:10;2.25;;;1.73;;
16189;SDS011;41754;51.498;7.540;2023-07-28T01:14:38;1.45;;;1.35;;
16189;SDS011;41754;51.498;7.540;2023-07-28T01:17:06;3.42;;;1.65;;
16189;SDS011;41754;51.498;7.540;2023-07-28T01:19:34;2.53;;;1.58;;
16189;SDS011;41754;51.498;7.540;2023-07-28T01:22:11;1.23;;;1.13;;
16189;SDS011;41754;51.498;7.540;2023-07-28T01:24:57;2.33;;;1.40;;
16189;SDS011;41754;51.498;7.540;2023-07-28T01:27:34;1.92;;;1.10;;
16189;SDS011;41754;51.498;7.540;2023-07-28T01:30:02;1.63;;;1.33;;
16189;SDS011;41754;51.498;7.540;2023-07-28T01:32:30;1.33;;;1.10;;
16189;SDS011;41754;51.498;7.540;2023-07-28T01:34:58;3.03;;;1.30;;
16189;SDS011;41754;51.498;7.540;2023-07-28T01:37:26;2.25;;;1.20;;
16189;SDS011;41754;51.498;7.540;2023-07-28T01:39:54;1.17;;;1.08;;
16189;SDS011;41754;51.498;7.540;2023-07-28T01:42:22;1.15;;;1.00;;
16189;SDS011;41754;51.498;7.540;2023-07-28T01:44:51;1.80;;;1.00;;
16189;SDS011;41754;51.498;7.540;2023-07-28T01:47:19;0.98;;;0.90;;
16189;SDS011;41754;51.498;7.540;2023-07-28T01:49:47;1.45;;;1.00;;
16189;SDS011;41754;51.498;7.540;2023-07-28T01:52:14;1.58;;;1.10;;
16189;SDS011;41754;51.498;7.540;2023-07-28T01:54:42;2.45;;;0.98;;
16189;SDS011;41754;51.498;7.540;2023-07-28T01:57:10;1.80;;;1.02;;
16189;SDS011;41754;51.498;7.540;2023-07-28T01:59:38;1.50;;;1.38;;
16189;SDS011;41754;51.498;7.540;2023-07-28T02:02:07;1.15;;;0.90;;
16189;SDS011;41754;51.498;7.540;2023-07-28T02:04:35;4.18;;;0.93;;
16189;SDS011;41754;51.498;7.540;2023-07-28T02:07:03;1.20;;;1.10;;
16189;SDS011;41754;51.498;7.540;2023-07-28T02:09:31;1.23;;;1.17;;
16189;SDS011;41754;51.498;7.540;2023-07-28T02:11:58;2.33;;;1.20;;
16189;SDS011;41754;51.498;7.540;2023-07-28T02:14:26;2.13;;;0.98;;
16189;SDS011;41754;51.498;7.540;2023-07-28T02:16:54;2.33;;;1.10;;
16189;SDS011;41754;51.498;7.540;2023-07-28T02:19:23;1.23;;;1.13;;
16189;SDS011;41754;51.498;7.540;2023-07-28T02:21:51;1.10;;;1.00;;
16189;SDS011;41754;51.498;7.540;2023-07-28T02:24:19;0.90;;;0.90;;
16189;SDS011;41754;51.498;7.540;2023-07-28T02:26:47;3.53;;;1.23;;
16189;SDS011;41754;51.498;7.540;2023-07-28T02:29:16;2.33;;;0.90;;
16189;SDS011;41754;51.498;7.540;2023-07-28T02:31:44;0.90;;;0.90;;
16189;SDS011;41754;51.498;7.540;2023-07-28T02:34:11;1.02;;;0.95;;
16189;SDS011;41754;51.498;7.540;2023-07-28T02:36:41;0.85;;;0.85;;
16189;SDS011;41754;51.498;7.540;2023-07-28T02:39:08;0.85;;;0.80;;
16189;SDS011;41754;51.498;7.540;2023-07-28T02:41:36;1.55;;;0.80;;
16189;SDS011;41754;51.498;7.540;2023-07-28T02:44:04;0.68;;;0.68;;
16189;SDS011;41754;51.498;7.540;2023-07-28T02:46:32;1.38;;;0.73;;
16189;SDS011;41754;51.498;7.540;2023-07-28T02:49:00;2.35;;;0.70;;
16189;SDS011;41754;51.498;7.540;2023-07-28T02:51:30;2.00;;;0.85;;
16189;SDS011;41754;51.498;7.540;2023-07-28T02:54:01;1.20;;;0.98;;
16189;SDS011;41754;51.498;7.540;2023-07-28T02:56:29;2.20;;;0.80;;
16189;SDS011;41754;51.498;7.540;2023-07-28T02:59:01;1.05;;;0.90;;
16189;SDS011;41754;51.498;7.540;2023-07-28T03:01:29;1.30;;;0.80;;
16189;SDS011;41754;51.498;7.540;2023-07-28T03:04:00;1.83;;;0.70;;
16189;SDS011;41754;51.498;7.540;2023-07-28T03:06:32;1.30;;;0.70;;
16189;SDS011;41754;51.498;7.540;2023-07-28T03:09:02;2.00;;;0.75;;
16189;SDS011;41754;51.498;7.540;2023-07-28T03:11:46;1.33;;;0.80;;
16189;SDS011;41754;51.498;7.540;2023-07-28T03:14:14;2.35;;;0.50;;
16189;SDS011;41754;51.498;7.540;2023-07-28T03:16:42;1.77;;;0.70;;
16189;SDS011;41754;51.498;7.540;2023-07-28T03:19:10;2.58;;;0.70;;
16189;SDS011;41754;51.498;7.540;2023-07-28T03:21:38;1.30;;;0.75;;
16189;SDS011;41754;51.498;7.540;2023-07-28T03:24:07;1.02;;;0.63;;
16189;SDS011;41754;51.498;7.540;2023-07-28T03:26:35;0.73;;;0.70;;
16189;SDS011;41754;51.498;7.540;2023-07-28T03:29:04;0.80;;;0.70;;
16189;SDS011;41754;51.498;7.540;2023-07-28T03:31:32;0.65;;;0.65;;
16189;SDS011;41754;51.498;7.540;2023-07-28T03:34:02;1.42;;;0.80;;
16189;SDS011;41754;51.498;7.540;2023-07-28T03:36:31;0.70;;;0.70;;
16189;SDS011;41754;51.498;7.540;2023-07-28T03:39:00;1.45;;;0.98;;
16189;SDS011;41754;51.498;7.540;2023-07-28T03:41:30;2.65;;;0.75;;
16189;SDS011;41754;51.498;7.540;2023-07-28T03:43:58;1.23;;;0.90;;
16189;SDS011;41754;51.498;7.540;2023-07-28T03:46:26;0.80;;;0.80;;
16189;SDS011;41754;51.498;7.540;2023-07-28T03:48:56;1.60;;;0.70;;
16189;SDS011;41754;51.498;7.540;2023-07-28T03:51:26;1.17;;;0.80;;
16189;SDS011;41754;51.498;7.540;2023-07-28T03:53:54;0.63;;;0.63;;
16189;SDS011;41754;51.498;7.540;2023-07-28T03:56:22;0.73;;;0.70;;
16189;SDS011;41754;51.498;7.540;2023-07-28T03:58:51;1.17;;;0.70;;
16189;SDS011;41754;51.498;7.540;2023-07-28T04:01:20;2.47;;;0.60;;
16189;SDS011;41754;51.498;7.540;2023-07-28T04:03:48;1.38;;;0.63;;
16189;SDS011;41754;51.498;7.540;2023-07-28T04:06:16;1.23;;;0.70;;
16189;SDS011;41754;51.498;7.540;2023-07-28T04:08:44;0.80;;;0.68;;
16189;SDS011;41754;51.498;7.540;2023-07-28T04:11:12;0.63;;;0.63;;
16189;SDS011;41754;51.498;7.540;2023-07-28T04:13:40;1.45;;;0.65;;
16189;SDS011;41754;51.498;7.540;2023-07-28T04:16:09;0.60;;;0.60;;
16189;SDS011;41754;51.498;7.540;2023-07-28T04:18:37;1.02;;;0.77;;
16189;SDS011;41754;51.498;7.540;2023-07-28T04:21:05;0.88;;;0.88;;
16189;SDS011;41754;51.498;7.540;2023-07-28T04:23:33;1.88;;;0.73;;
16189;SDS011;41754;51.498;7.540;2023-07-28T04:26:01;0.60;;;0.60;;
16189;SDS011;41754;51.498;7.540;2023-07-28T04:28:29;0.88;;;0.85;;
16189;SDS011;41754;51.498;7.540;2023-07-28T04:31:00;2.83;;;0.70;;
16189;SDS011;41754;51.498;7.540;2023-07-28T04:33:52;0.60;;;0.60;;
16189;SDS011;41754;51.498;7.540;2023-07-28T04:36:21;0.98;;;0.63;;
16189;SDS011;41754;51.498;7.540;2023-07-28T04:38:49;0.60;;;0.60;;
16189;SDS011;41754;51.498;7.540;2023-07-28T04:41:17;1.73;;;0.70;;
16189;SDS011;41754;51.498;7.540;2023-07-28T04:43:52;1.00;;;0.70;;
16189;SDS011;41754;51.498;7.540;2023-07-28T04:46:22;0.50;;;0.50;;
16189;SDS011;41754;51.498;7.540;2023-07-28T04:48:56;0.60;;;0.50;;
16189;SDS011;41754;51.498;7.540;2023-07-28T04:51:44;0.60;;;0.60;;
16189;SDS011;41754;51.498;7.540;2023-07-28T04:54:21;1.63;;;0.68;;
16189;SDS011;41754;51.498;7.540;2023-07-28T04:56:49;1.63;;;0.75;;
16189;SDS011;41754;51.498;7.540;2023-07-28T04:59:25;0.52;;;0.52;;
16189;SDS011;41754;51.498;7.540;2023-07-28T05:01:53;3.13;;;0.68;;
16189;SDS011;41754;51.498;7.540;2023-07-28T05:04:22;0.40;;;0.40;;
16189;SDS011;41754;51.498;7.540;2023-07-28T05:06:50;0.60;;;0.50;;
16189;SDS011;41754;51.498;7.540;2023-07-28T05:09:18;2.25;;;0.70;;
16189;SDS011;41754;51.498;7.540;2023-07-28T05:11:46;0.60;;;0.60;;
16189;SDS011;41754;51.498;7.540;2023-07-28T05:14:15;1.38;;;0.57;;
16189;SDS011;41754;51.498;7.540;2023-07-28T05:16:43;1.90;;;0.40;;
16189;SDS011;41754;51.498;7.540;2023-07-28T05:19:11;0.50;;;0.43;;
16189;SDS011;41754;51.498;7.540;2023-07-28T05:21:58;0.82;;;0.60;;
16189;SDS011;41754;51.498;7.540;2023-07-28T05:24:49;0.38;;;0.38;;
16189;SDS011;41754;51.498;7.540;2023-07-28T05:27:21;0.50;;;0.50;;
16189;SDS011;41754;51.498;7.540;2023-07-28T05:29:49;0.30;;;0.30;;
16189;SDS011;41754;51.498;7.540;2023-07-28T05:32:17;0.40;;;0.30;;
16189;SDS011;41754;51.498;7.540;2023-07-28T05:35:03;0.50;;;0.40;;
16189;SDS011;41754;51.498;7.540;2023-07-28T05:37:33;1.17;;;0.50;;
16189;SDS011;41754;51.498;7.540;2023-07-28T05:40:01;0.57;;;0.57;;
16189;SDS011;41754;51.498;7.540;2023-07-28T05:42:31;0.75;;;0.55;;
16189;SDS011;41754;51.498;7.540;2023-07-28T05:44:59;0.82;;;0.32;;
16189;SDS011;41754;51.498;7.540;2023-07-28T05:47:27;0.50;;;0.50;;
16189;SDS011;41754;51.498;7.540;2023-07-28T05:49:55;0.45;;;0.45;;
16189;SDS011;41754;51.498;7.540;2023-07-28T05:52:23;0.43;;;0.43;;
16189;SDS011;41754;51.498;7.540;2023-07-28T05:54:53;0.70;;;0.70;;
16189;SDS011;41754;51.498;7.540;2023-07-28T05:57:20;2.10;;;0.73;;
16189;SDS011;41754;51.498;7.540;2023-07-28T05:59:48;1.55;;;0.50;;
16189;SDS011;41754;51.498;7.540;2023-07-28T06:02:16;0.95;;;0.73;;
16189;SDS011;41754;51.498;7.540;2023-07-28T06:04:53;0.60;;;0.60;;
16189;SDS011;41754;51.498;7.540;2023-07-28T06:07:21;1.00;;;0.90;;
16189;SDS011;41754;51.498;7.540;2023-07-28T06:09:49;1.02;;;0.50;;
16189;SDS011;41754;51.498;7.540;2023-07-28T06:12:18;1.42;;;1.33;;
16189;SDS011;41754;51.498;7.540;2023-07-28T06:14:46;0.88;;;0.80;;
16189;SDS011;41754;51.498;7.540;2023-07-28T06:17:14;0.75;;;0.75;;
16189;SDS011;41754;51.498;7.540;2023-07-28T06:19:42;0.88;;;0.88;;
16189;SDS011;41754;51.498;7.540;2023-07-28T06:22:10;0.70;;;0.70;;
16189;SDS011;41754;51.498;7.540;2023-07-28T06:24:41;1.08;;;0.93;;
16189;SDS011;41754;51.498;7.540;2023-07-28T06:27:09;1.67;;;1.00;;
16189;SDS011;41754;51.498;7.540;2023-07-28T06:29:39;1.10;;;1.00;;
16189;SDS011;41754;51.498;7.540;2023-07-28T06:32:07;2.33;;;1.60;;
16189;SDS011;41754;51.498;7.540;2023-07-28T06:34:35;1.13;;;1.10;;
16189;SDS011;41754;51.498;7.540;2023-07-28T06:37:03;1.83;;;1.23;;
16189;SDS011;41754;51.498;7.540;2023-07-28T06:39:32;1.48;;;1.38;;
16189;SDS011;41754;51.498;7.540;2023-07-28T06:42:00;2.60;;;1.95;;
16189;SDS011;41754;51.498;7.540;2023-07-28T06:44:28;2.33;;;2.13;;
16189;SDS011;41754;51.498;7.540;2023-07-28T06:46:58;2.53;;;1.90;;
16189;SDS011;41754;51.498;7.540;2023-07-28T06:49:26;2.50;;;2.30;;
16189;SDS011;41754;51.498;7.540;2023-07-28T06:51:54;2.83;;;2.63;;
16189;SDS011;41754;51.498;7.540;2023-07-28T06:54:21;3.88;;;2.95;;
16189;SDS011;41754;51.498;7.540;2023-07-28T06:56:49;3.25;;;2.88;;
16189;SDS011;41754;51.498;7.540;2023-07-28T06:59:17;3.05;;;2.75;;
16189;SDS011;41754;51.498;7.540;2023-07-28T07:01:48;3.95;;;3.35;;
16189;SDS011;41754;51.498;7.540;2023-07-28T07:04:18;3.38;;;3.08;;
16189;SDS011;41754;51.498;7.540;2023-07-28T07:06:46;3.67;;;3.38;;
16189;SDS011;41754;51.498;7.540;2023-07-28T07:09:14;3.50;;;3.20;;
16189;SDS011;41754;51.498;7.540;2023-07-28T07:11:42;3.28;;;3.08;;
16189;SDS011;41754;51.498;7.540;2023-07-28T07:14:10;3.85;;;3.53;;
16189;SDS011;41754;51.498;7.540;2023-07-28T07:16:38;3.65;;;3.35;;
16189;SDS011;41754;51.498;7.540;2023-07-28T07:19:06;3.72;;;3.40;;
16189;SDS011;41754;51.498;7.540;2023-07-28T07:21:36;3.70;;;3.40;;
16189;SDS011;41754;51.498;7.540;2023-07-28T07:24:04;3.10;;;2.90;;
16189;SDS011;41754;51.498;7.540;2023-07-28T07:26:32;3.55;;;3.00;;
16189;SDS011;41754;51.498;7.540;2023-07-28T07:29:00;3.90;;;3.15;;
16189;SDS011;41754;51.498;7.540;2023-07-28T07:31:29;3.47;;;3.17;;
16189;SDS011;41754;51.498;7.540;2023-07-28T07:33:57;4.05;;;3.35;;
16189;SDS011;41754;51.498;7.540;2023-07-28T07:36:24;3.33;;;2.95;;
16189;SDS011;41754;51.498;7.540;2023-07-28T07:38:54;3.90;;;3.60;;
16189;SDS011;41754;51.498;7.540;2023-07-28T07:41:22;5.32;;;4.28;;
16189;SDS011;41754;51.498;7.540;2023-07-28T07:43:51;4.65;;;4.25;;
16189;SDS011;41754;51.498;7.540;2023-07-28T07:46:22;4.60;;;4.18;;
16189;SDS011;41754;51.498;7.540;2023-07-28T07:48:50;5.43;;;4.70;;
16189;SDS011;41754;51.498;7.540;2023-07-28T07:51:18;6.57;;;5.97;;
16189;SDS011;41754;51.498;7.540;2023-07-28T07:53:46;6.22;;;5.65;;
16189;SDS011;41754;51.498;7.540;2023-07-28T07:56:15;5.70;;;5.10;;
16189;SDS011;41754;51.498;7.540;2023-07-28T07:58:43;5.28;;;4.80;;
16189;SDS011;41754;51.498;7.540;2023-07-28T08:01:11;5.40;;;5.00;;
16189;SDS011;41754;51.498;7.540;2023-07-28T08:03:39;6.20;;;5.65;;
16189;SDS011;41754;51.498;7.540;2023-07-28T08:06:07;5.68;;;5.18;;
16189;SDS011;41754;51.498;7.540;2023-07-28T08:08:37;6.68;;;5.70;;
16189;SDS011;41754;51.498;7.540;2023-07-28T08:11:09;6.68;;;5.97;;
16189;SDS011;41754;51.498;7.540;2023-07-28T08:13:38;7.45;;;6.65;;
16189;SDS011;41754;51.498;7.540;2023-07-28T08:16:06;7.10;;;6.45;;
16189;SDS011;41754;51.498;7.540;2023-07-28T08:18:34;7.40;;;6.70;;
16189;SDS011;41754;51.498;7.540;2023-07-28T08:21:01;7.40;;;6.60;;
16189;SDS011;41754;51.498;7.540;2023-07-28T08:23:29;6.78;;;6.07;;
16189;SDS011;41754;51.498;7.540;2023-07-28T08:25:57;6.60;;;6.03;;
16189;SDS011;41754;51.498;7.540;2023-07-28T08:28:25;6.40;;;5.85;;
16189;SDS011;41754;51.498;7.540;2023-07-28T08:30:55;5.97;;;5.47;;
16189;SDS011;41754;51.498;7.540;2023-07-28T08:33:24;7.13;;;6.53;;
16189;SDS011;41754;51.498;7.540;2023-07-28T08:35:52;9.85;;;8.95;;
16189;SDS011;41754;51.498;7.540;2023-07-28T08:38:20;10.88;;;9.95;;
16189;SDS011;41754;51.498;7.540;2023-07-28T08:40:48;13.55;;;12.25;;
16189;SDS011;41754;51.498;7.540;2023-07-28T08:43:16;13.52;;;12.20;;
16189;SDS011;41754;51.498;7.540;2023-07-28T08:45:44;14.80;;;13.50;;
16189;SDS011;41754;51.498;7.540;2023-07-28T08:48:13;13.40;;;12.13;;
16189;SDS011;41754;51.498;7.540;2023-07-28T08:50:41;11.55;;;10.52;;
16189;SDS011;41754;51.498;7.540;2023-07-28T08:53:09;8.65;;;7.95;;
16189;SDS011;41754;51.498;7.540;2023-07-28T08:55:37;10.57;;;9.60;;
16189;SDS011;41754;51.498;7.540;2023-07-28T08:58:14;10.35;;;9.30;;
16189;SDS011;41754;51.498;7.540;2023-07-28T09:00:43;7.72;;;7.13;;
16189;SDS011;41754;51.498;7.540;2023-07-28T09:03:12;5.32;;;4.93;;
16189;SDS011;41754;51.498;7.540;2023-07-28T09:05:40;3.72;;;3.42;;
16189;SDS011;41754;51.498;7.540;2023-07-28T09:08:09;3.22;;;2.92;;
16189;SDS011;41754;51.498;7.540;2023-07-28T09:10:41;2.70;;;2.28;;
16189;SDS011;41754;51.498;7.540;2023-07-28T09:13:10;1.92;;;1.83;;
16189;SDS011;41754;51.498;7.540;2023-07-28T09:15:43;1.83;;;1.73;;
16189;SDS011;41754;51.498;7.540;2023-07-28T09:18:14;2.75;;;1.70;;
16189;SDS011;41754;51.498;7.540;2023-07-28T09:20:43;2.10;;;1.90;;
16189;SDS011;41754;51.498;7.540;2023-07-28T09:23:13;2.28;;;2.08;;
16189;SDS011;41754;51.498;7.540;2023-07-28T09:25:41;2.15;;;1.88;;
16189;SDS011;41754;51.498;7.540;2023-07-28T09:28:09;3.22;;;2.63;;
16189;SDS011;41754;51.498;7.540;2023-07-28T09:30:45;2.50;;;2.30;;
16189;SDS011;41754;51.498;7.540;2023-07-28T09:33:15;2.78;;;2.58;;
16189;SDS011;41754;51.498;7.540;2023-07-28T09:35:56;3.90;;;3.60;;
16189;SDS011;41754;51.498;7.540;2023-07-28T09:38:24;3.58;;;3.00;;
16189;SDS011;41754;51.498;7.540;2023-07-28T09:40:55;3.58;;;3.33;;
16189;SDS011;41754;51.498;7.540;2023-07-28T09:43:25;3.45;;;3.22;;
16189;SDS011;41754;51.498;7.540;2023-07-28T09:45:53;3.65;;;3.35;;
16189;SDS011;41754;51.498;7.540;2023-07-28T09:48:24;2.10;;;2.00;;
16189;SDS011;41754;51.498;7.540;2023-07-28T09:50:52;2.03;;;1.83;;
16189;SDS011;41754;51.498;7.540;2023-07-28T09:53:20;1.60;;;1.50;;
16189;SDS011;41754;51.498;7.540;2023-07-28T09:55:49;1.65;;;1.40;;
16189;SDS011;41754;51.498;7.540;2023-07-28T09:58:17;1.17;;;1.13;;
16189;SDS011;41754;51.498;7.540;2023-07-28T10:00:48;2.38;;;1.10;;
16189;SDS011;41754;51.498;7.540;2023-07-28T10:03:17;0.85;;;0.85;;
16189;SDS011;41754;51.498;7.540;2023-07-28T10:05:47;0.90;;;0.90;;
16189;SDS011;41754;51.498;7.540;2023-07-28T10:08:15;1.17;;;1.02;;
16189;SDS011;41754;51.498;7.540;2023-07-28T10:10:43;1.08;;;0.80;;
16189;SDS011;41754;51.498;7.540;2023-07-28T10:13:18;1.00;;;1.00;;
16189;SDS011;41754;51.498;7.540;2023-07-28T10:15:48;0.95;;;0.95;;
16189;SDS011;41754;51.498;7.540;2023-07-28T10:18:19;1.17;;;0.90;;
16189;SDS011;41754;51.498;7.540;2023-07-28T10:20:48;1.13;;;0.98;;
16189;SDS011;41754;51.498;7.540;2023-07-28T10:23:19;0.82;;;0.82;;
16189;SDS011;41754;51.498;7.540;2023-07-28T10:25:55;0.90;;;0.80;;
16189;SDS011;41754;51.498;7.540;2023-07-28T10:28:27;0.88;;;0.88;;
16189;SDS011;41754;51.498;7.540;2023-07-28T10:30:58;0.88;;;0.88;;
16189;SDS011;41754;51.498;7.540;2023-07-28T10:33:28;1.27;;;1.20;;
16189;SDS011;41754;51.498;7.540;2023-07-28T10:35:58;1.35;;;1.25;;
16189;SDS011;41754;51.498;7.540;2023-07-28T10:38:30;1.23;;;1.13;;
16189;SDS011;41754;51.498;7.540;2023-07-28T10:41:07;3.88;;;3.58;;
16189;SDS011;41754;51.498;7.540;2023-07-28T10:43:36;1.50;;;1.40;;
16189;SDS011;41754;51.498;7.540;2023-07-28T10:46:05;1.77;;;1.60;;
16189;SDS011;41754;51.498;7.540;2023-07-28T10:48:35;1.60;;;1.42;;
16189;SDS011;41754;51.498;7.540;2023-07-28T10:51:05;2.25;;;1.60;;
16189;SDS011;41754;51.498;7.540;2023-07-28T10:53:33;1.90;;;1.80;;
16189;SDS011;41754;51.498;7.540;2023-07-28T10:56:02;1.30;;;1.30;;
16189;SDS011;41754;51.498;7.540;2023-07-28T10:58:31;1.60;;;1.50;;
16189;SDS011;41754;51.498;7.540;2023-07-28T11:01:01;1.60;;;1.50;;
16189;SDS011;41754;51.498;7.540;2023-07-28T11:03:29;12.32;;;11.10;;
16189;SDS011;41754;51.498;7.540;2023-07-28T11:05:57;2.72;;;2.53;;
16189;SDS011;41754;51.498;7.540;2023-07-28T11:08:26;2.08;;;1.88;;
16189;SDS011;41754;51.498;7.540;2023-07-28T11:10:54;2.13;;;2.03;;
16189;SDS011;41754;51.498;7.540;2023-07-28T11:13:22;2.10;;;2.00;;
16189;SDS011;41754;51.498;7.540;2023-07-28T11:16:06;6.75;;;6.15;;
16189;SDS011;41754;51.498;7.540;2023-07-28T11:18:37;7.10;;;6.50;;
16189;SDS011;41754;51.498;7.540;2023-07-28T11:21:05;10.00;;;9.07;;
16189;SDS011;41754;51.498;7.540;2023-07-28T11:23:34;8.95;;;8.25;;
16189;SDS011;41754;51.498;7.540;2023-07-28T11:26:02;4.35;;;4.05;;
16189;SDS011;41754;51.498;7.540;2023-07-28T11:28:30;4.70;;;4.30;;
16189;SDS011;41754;51.498;7.540;2023-07-28T11:30:58;3.50;;;3.28;;
16189;SDS011;41754;51.498;7.540;2023-07-28T11:33:27;2.83;;;2.40;;
16189;SDS011;41754;51.498;7.540;2023-07-28T11:35:55;1.80;;;1.70;;
16189;SDS011;41754;51.498;7.540;2023-07-28T11:38:24;1.67;;;1.58;;
16189;SDS011;41754;51.498;7.540;2023-07-28T11:40:54;2.15;;;1.75;;
16189;SDS011;41754;51.498;7.540;2023-07-28T11:43:22;1.70;;;1.60;;
16189;SDS011;41754;51.498;7.540;2023-07-28T11:45:51;2.78;;;1.67;;
16189;SDS011;41754;51.498;7.540;2023-07-28T11:48:19;1.50;;;1.40;;
16189;SDS011;41754;51.498;7.540;2023-07-28T11:50:47;1.40;;;1.30;;
16189;SDS011;41754;51.498;7.540;2023-07-28T11:53:17;1.60;;;1.40;;
16189;SDS011;41754;51.498;7.540;2023-07-28T11:55:45;1.30;;;1.20;;
16189;SDS011;41754;51.498;7.540;2023-07-28T11:58:15;1.60;;;1.50;;
16189;SDS011;41754;51.498;7.540;2023-07-28T12:00:42;1.40;;;1.30;;
16189;SDS011;41754;51.498;7.540;2023-07-28T12:03:11;1.75;;;1.63;;
16189;SDS011;41754;51.498;7.540;2023-07-28T12:05:40;1.80;;;1.70;;
16189;SDS011;41754;51.498;7.540;2023-07-28T12:08:12;1.85;;;1.60;;
16189;SDS011;41754;51.498;7.540;2023-07-28T12:10:53;2.28;;;1.40;;
16189;SDS011;41754;51.498;7.540;2023-07-28T12:13:25;1.40;;;1.30;;
16189;SDS011;41754;51.498;7.540;2023-07-28T12:15:56;1.83;;;1.42;;
16189;SDS011;41754;51.498;7.540;2023-07-28T12:18:29;2.10;;;1.60;;
16189;SDS011;41754;51.498;7.540;2023-07-28T12:21:00;2.90;;;1.20;;
16189;SDS011;41754;51.498;7.540;2023-07-28T12:23:28;2.05;;;1.13;;
16189;SDS011;41754;51.498;7.540;2023-07-28T12:25:59;1.25;;;1.10;;
16189;SDS011;41754;51.498;7.540;2023-07-28T12:28:28;2.60;;;1.20;;
16189;SDS011;41754;51.498;7.540;2023-07-28T12:31:09;1.27;;;1.17;;
16189;SDS011;41754;51.498;7.540;2023-07-28T12:33:37;1.63;;;1.20;;
16189;SDS011;41754;51.498;7.540;2023-07-28T12:36:05;1.70;;;1.10;;
16189;SDS011;41754;51.498;7.540;2023-07-28T12:38:36;1.35;;;1.25;;
16189;SDS011;41754;51.498;7.540;2023-07-28T12:41:07;2.15;;;1.50;;
16189;SDS011;41754;51.498;7.540;2023-07-28T12:43:37;1.38;;;1.27;;
16189;SDS011;41754;51.498;7.540;2023-07-28T12:46:07;1.02;;;1.02;;
16189;SDS011;41754;51.498;7.540;2023-07-28T12:48:37;1.10;;;1.10;;
16189;SDS011;41754;51.498;7.540;2023-07-28T12:51:08;1.17;;;1.10;;
16189;SDS011;41754;51.498;7.540;2023-07-28T12:53:36;1.60;;;1.00;;
16189;SDS011;41754;51.498;7.540;2023-07-28T12:56:03;1.38;;;1.27;;
16189;SDS011;41754;51.498;7.540;2023-07-28T12:58:31;0.80;;;0.80;;
16189;SDS011;41754;51.498;7.540;2023-07-28T13:01:04;1.52;;;0.90;;
16189;SDS011;41754;51.498;7.540;2023-07-28T13:03:32;0.88;;;0.88;;
16189;SDS011;41754;51.498;7.540;2023-07-28T13:06:00;1.30;;;1.20;;
16189;SDS011;41754;51.498;7.540;2023-07-28T13:08:29;1.77;;;1.63;;
16189;SDS011;41754;51.498;7.540;2023-07-28T13:11:00;1.40;;;1.23;;
16189;SDS011;41754;51.498;7.540;2023-07-28T13:13:30;1.25;;;0.77;;
16189;SDS011;41754;51.498;7.540;2023-07-28T13:15:59;2.08;;;0.85;;
16189;SDS011;41754;51.498;7.540;2023-07-28T13:18:28;1.00;;;0.90;;
16189;SDS011;41754;51.498;7.540;2023-07-28T13:20:57;0.80;;;0.80;;
16189;SDS011;41754;51.498;7.540;2023-07-28T13:23:25;1.00;;;1.00;;
16189;SDS011;41754;51.498;7.540;2023-07-28T13:25:53;1.10;;;1.10;;
16189;SDS011;41754;51.498;7.540;2023-07-28T13:28:21;0.73;;;0.73;;
16189;SDS011;41754;51.498;7.540;2023-07-28T13:30:50;1.15;;;0.60;;
16189;SDS011;41754;51.498;7.540;2023-07-28T13:33:18;1.08;;;0.90;;
16189;SDS011;41754;51.498;7.540;2023-07-28T13:35:47;1.42;;;1.25;;
16189;SDS011;41754;51.498;7.540;2023-07-28T13:38:15;0.90;;;0.90;;
16189;SDS011;41754;51.498;7.540;2023-07-28T13:40:43;4.55;;;1.13;;
16189;SDS011;41754;51.498;7.540;2023-07-28T13:43:11;0.77;;;0.73;;
16189;SDS011;41754;51.498;7.540;2023-07-28T13:45:43;0.90;;;0.90;;
16189;SDS011;41754;51.498;7.540;2023-07-28T13:48:11;0.80;;;0.80;;
16189;SDS011;41754;51.498;7.540;2023-07-28T13:50:41;0.90;;;0.90;;
16189;SDS011;41754;51.498;7.540;2023-07-28T13:53:22;1.15;;;0.70;;
16189;SDS011;41754;51.498;7.540;2023-07-28T13:55:53;1.08;;;0.80;;
16189;SDS011;41754;51.498;7.540;2023-07-28T13:58:24;1.55;;;0.90;;
16189;SDS011;41754;51.498;7.540;2023-07-28T14:00:52;0.90;;;0.90;;
16189;SDS011;41754;51.498;7.540;2023-07-28T14:03:20;0.93;;;0.88;;
16189;SDS011;41754;51.498;7.540;2023-07-28T14:05:48;1.02;;;1.02;;
16189;SDS011;41754;51.498;7.540;2023-07-28T14:08:16;0.80;;;0.80;;
16189;SDS011;41754;51.498;7.540;2023-07-28T14:10:45;1.55;;;1.00;;
16189;SDS011;41754;51.498;7.540;2023-07-28T14:13:13;0.80;;;0.80;;
16189;SDS011;41754;51.498;7.540;2023-07-28T14:15:41;0.90;;;0.90;;
16189;SDS011;41754;51.498;7.540;2023-07-28T14:18:10;1.25;;;0.98;;
16189;SDS011;41754;51.498;7.540;2023-07-28T14:20:38;0.80;;;0.80;;
16189;SDS011;41754;51.498;7.540;2023-07-28T14:23:20;0.95;;;0.90;;
16189;SDS011;41754;51.498;7.540;2023-07-28T14:25:51;1.00;;;1.00;;
16189;SDS011;41754;51.498;7.540;2023-07-28T14:28:19;1.58;;;1.48;;
16189;SDS011;41754;51.498;7.540;2023-07-28T14:30:48;2.63;;;2.42;;
16189;SDS011;41754;51.498;7.540;2023-07-28T14:33:18;1.23;;;1.10;;
16189;SDS011;41754;51.498;7.540;2023-07-28T14:35:47;1.20;;;1.10;;
16189;SDS011;41754;51.498;7.540;2023-07-28T14:38:16;0.93;;;0.90;;
16189;SDS011;41754;51.498;7.540;2023-07-28T14:40:44;1.13;;;1.08;;
16189;SDS011;41754;51.498;7.540;2023-07-28T14:43:17;2.17;;;1.00;;
16189;SDS011;41754;51.498;7.540;2023-07-28T14:45:45;0.80;;;0.80;;
16189;SDS011;41754;51.498;7.540;2023-07-28T14:48:13;2.08;;;1.00;;
16189;SDS011;41754;51.498;7.540;2023-07-28T14:50:40;1.08;;;1.00;;
16189;SDS011;41754;51.498;7.540;2023-07-28T14:53:27;0.75;;;0.75;;
16189;SDS011;41754;51.498;7.540;2023-07-28T14:55:56;0.95;;;0.90;;
16189;SDS011;41754;51.498;7.540;2023-07-28T14:58:27;0.80;;;0.80;;
16189;SDS011;41754;51.498;7.540;2023-07-28T15:00:55;0.60;;;0.60;;